createdAt,value
2023-04-27T00:02:22.282Z,101405.59
2023-04-27T00:04:51.010Z,101406.09
2023-04-27T00:07:18.965Z,101417.16
2023-04-27T00:09:47.124Z,101409.69
2023-04-27T00:12:14.714Z,101416.22
2023-04-27T00:14:43.618Z,101413.91
2023-04-27T00:17:11.297Z,101413.41
2023-04-27T00:19:39.590Z,101412.03
2023-04-27T00:22:07.481Z,101412.47
2023-04-27T00:24:35.540Z,101411.09
2023-04-27T00:27:03.672Z,101413.19
2023-04-27T00:29:31.363Z,101417.19
2023-04-27T00:32:02.061Z,101413.16
2023-04-27T00:34:29.708Z,101413.50
2023-04-27T00:36:58.444Z,101416.50
2023-04-27T00:39:26.180Z,101415.13
2023-04-27T00:41:54.968Z,101420.72
2023-04-27T00:44:26.117Z,101422.81
2023-04-27T00:46:54.265Z,101426.59
2023-04-27T00:49:24.571Z,101422.59
2023-04-27T00:51:52.519Z,101420.25
2023-04-27T00:54:23.879Z,101424.06
2023-04-27T00:56:52.857Z,101427.84
2023-04-27T00:59:21.717Z,101420.34
2023-04-27T01:01:50.917Z,101432.88
2023-04-27T01:04:21.024Z,101435.72
2023-04-27T01:06:50.208Z,101439.59
2023-04-27T01:09:19.743Z,101442.50
2023-04-27T01:11:50.703Z,101448.06
2023-04-27T01:14:18.530Z,101451.75
2023-04-27T01:16:47.476Z,101450.19
2023-04-27T01:19:15.464Z,101458.38
2023-04-27T01:21:44.119Z,101457.81
2023-04-27T01:24:13.028Z,101457.25
2023-04-27T01:26:40.795Z,101457.47
2023-04-27T01:29:11.261Z,101458.59
2023-04-27T01:31:39.889Z,101458.00
2023-04-27T01:34:08.526Z,101466.94
2023-04-27T01:36:37.006Z,101461.03
2023-04-27T01:39:09.954Z,101469.97
2023-04-27T01:41:39.792Z,101469.38
2023-04-27T01:44:08.958Z,101474.91
2023-04-27T01:46:38.108Z,101473.41
2023-04-27T01:49:07.436Z,101464.84
2023-04-27T01:51:35.961Z,101463.34
2023-04-27T01:54:03.566Z,101467.88
2023-04-27T01:56:31.244Z,101474.25
2023-04-27T01:59:00.201Z,101474.44
2023-04-27T02:01:28.976Z,101475.53
2023-04-27T02:03:56.724Z,101484.53
2023-04-27T02:06:28.657Z,101483.06
2023-04-27T02:08:56.343Z,101485.94
2023-04-27T02:11:23.887Z,101487.75
2023-04-27T02:13:51.731Z,101484.44
2023-04-27T02:16:21.673Z,101480.06
2023-04-27T02:18:49.439Z,101485.47
2023-04-27T02:21:17.394Z,101482.97
2023-04-27T02:23:45.127Z,101482.19
2023-04-27T02:26:17.732Z,101484.88
2023-04-27T02:28:45.971Z,101472.00
2023-04-27T02:31:13.889Z,101484.41
2023-04-27T02:33:43.105Z,101485.50
2023-04-27T02:36:11.525Z,101492.72
2023-04-27T02:38:39.074Z,101489.41
2023-04-27T02:41:07.128Z,101487.91
2023-04-27T02:43:36.084Z,101488.03
2023-04-27T02:46:07.684Z,101480.22
2023-04-27T02:48:35.331Z,101487.28
2023-04-27T02:51:07.928Z,101482.19
2023-04-27T02:53:36.284Z,101477.03
2023-04-27T02:56:04.076Z,101468.53
2023-04-27T02:58:31.813Z,101471.25
2023-04-27T03:00:59.530Z,101471.38
2023-04-27T03:03:27.649Z,101464.56
2023-04-27T03:05:56.038Z,101470.84
2023-04-27T03:08:25.787Z,101464.06
2023-04-27T03:10:56.046Z,101459.81
2023-04-27T03:13:24.632Z,101460.81
2023-04-27T03:15:52.172Z,101464.44
2023-04-27T03:18:21.115Z,101459.28
2023-04-27T03:20:50.052Z,101465.56
2023-04-27T03:23:19.492Z,101476.25
2023-04-27T03:25:49.163Z,101462.47
2023-04-27T03:28:16.860Z,101467.00
2023-04-27T03:30:44.602Z,101472.34
2023-04-27T03:33:12.372Z,101471.56
2023-04-27T03:35:41.952Z,101457.63
2023-04-27T03:38:10.045Z,101452.38
2023-04-27T03:40:38.963Z,101462.00
2023-04-27T03:43:08.046Z,101458.63
2023-04-27T03:45:36.031Z,101450.97
2023-04-27T03:48:04.161Z,101461.56
2023-04-27T03:50:33.000Z,101462.53
2023-04-27T03:53:02.044Z,101465.19
2023-04-27T03:55:32.940Z,101473.13
2023-04-27T03:58:00.963Z,101470.63
2023-04-27T04:00:30.074Z,101472.50
2023-04-27T04:02:57.773Z,101486.59
2023-04-27T04:05:30.474Z,101490.25
2023-04-27T04:08:00.000Z,101490.34
2023-04-27T04:10:28.831Z,101492.13
2023-04-27T04:12:56.439Z,101494.81
2023-04-27T04:15:24.100Z,101493.94
2023-04-27T04:17:55.086Z,101493.09
2023-04-27T04:20:22.944Z,101494.03
2023-04-27T04:22:51.244Z,101494.91
2023-04-27T04:25:20.671Z,101495.03
2023-04-27T04:27:49.031Z,101497.66
2023-04-27T04:30:17.978Z,101498.66
2023-04-27T04:32:46.073Z,101502.19
2023-04-27T04:35:17.701Z,101503.09
2023-04-27T04:37:45.524Z,101507.50
2023-04-27T04:40:14.155Z,101509.34
2023-04-27T04:42:43.069Z,101507.63
2023-04-27T04:45:12.071Z,101500.69
2023-04-27T04:47:40.014Z,101504.16
2023-04-27T04:50:09.285Z,101512.88
2023-04-27T04:52:38.613Z,101512.81
2023-04-27T04:55:07.431Z,101520.59
2023-04-27T05:00:29.963Z,101510.94
2023-04-27T05:02:58.802Z,101510.81
2023-04-27T05:05:26.463Z,101513.34
2023-04-27T05:07:55.979Z,101511.47
2023-04-27T05:10:23.547Z,101509.69
2023-04-27T05:12:51.148Z,101517.53
2023-04-27T05:15:18.985Z,101515.78
2023-04-27T05:17:46.745Z,101509.66
2023-04-27T05:20:14.450Z,101508.69
2023-04-27T05:22:42.019Z,101519.94
2023-04-27T05:25:12.198Z,101522.47
2023-04-27T05:27:41.006Z,101525.09
2023-04-27T05:30:09.953Z,101523.25
2023-04-27T05:32:37.807Z,101528.34
2023-04-27T05:35:06.969Z,101539.53
2023-04-27T05:38:04.718Z,101535.88
2023-04-27T05:40:33.949Z,101536.69
2023-04-27T05:43:05.246Z,101538.22
2023-04-27T05:45:34.058Z,101541.56
2023-04-27T05:48:03.390Z,101538.69
2023-04-27T05:50:31.591Z,101537.47
2023-04-27T05:52:59.448Z,101541.56
2023-04-27T05:55:54.109Z,101549.03
2023-04-27T05:58:25.617Z,101552.25
2023-04-27T06:00:54.962Z,101557.06
2023-04-27T06:03:23.652Z,101552.31
2023-04-27T06:05:57.422Z,101557.16
2023-04-27T06:08:27.071Z,101559.38
2023-04-27T06:10:56.414Z,101557.03
2023-04-27T06:13:26.402Z,101552.88
2023-04-27T06:16:19.410Z,101552.88
2023-04-27T06:18:47.846Z,101553.69
2023-04-27T06:21:17.369Z,101557.88
2023-04-27T06:23:46.120Z,101558.59
2023-04-27T06:26:15.367Z,101565.31
2023-04-27T06:28:42.939Z,101564.19
2023-04-27T06:31:10.968Z,101567.28
2023-04-27T06:33:39.084Z,101561.97
2023-04-27T06:36:07.114Z,101568.44
2023-04-27T06:38:36.943Z,101567.28
2023-04-27T06:41:04.979Z,101561.47
2023-04-27T06:43:34.108Z,101562.38
2023-04-27T06:46:03.547Z,101562.78
2023-04-27T06:48:32.073Z,101559.56
2023-04-27T06:51:03.949Z,101561.63
2023-04-27T06:53:32.368Z,101560.19
2023-04-27T06:56:00.142Z,101554.34
2023-04-27T06:58:28.162Z,101552.81
2023-04-27T07:01:03.029Z,101555.13
2023-04-27T07:03:32.386Z,101547.81
2023-04-27T07:06:01.974Z,101547.97
2023-04-27T07:08:29.726Z,101543.97
2023-04-27T07:10:57.281Z,101546.13
2023-04-27T07:13:25.460Z,101538.91
2023-04-27T07:15:58.633Z,101538.44
2023-04-27T07:18:28.052Z,101546.34
2023-04-27T07:20:55.725Z,101541.78
2023-04-27T07:23:23.683Z,101539.47
2023-04-27T07:25:51.849Z,101538.94
2023-04-27T07:28:19.483Z,101528.25
2023-04-27T07:30:49.177Z,101527.41
2023-04-27T07:33:19.078Z,101533.25
2023-04-27T07:35:49.951Z,101534.06
2023-04-27T07:38:18.387Z,101526.84
2023-04-27T07:40:46.575Z,101515.44
2023-04-27T07:43:15.544Z,101518.81
2023-04-27T07:45:43.993Z,101523.41
2023-04-27T07:48:12.747Z,101523.00
2023-04-27T07:50:41.958Z,101522.38
2023-04-27T07:53:11.253Z,101518.44
2023-04-27T07:55:39.016Z,101518.72
2023-04-27T07:58:08.982Z,101524.19
2023-04-27T08:00:37.968Z,101531.00
2023-04-27T08:03:10.151Z,101521.06
2023-04-27T08:05:38.423Z,101524.72
2023-04-27T08:08:08.179Z,101520.63
2023-04-27T08:10:38.969Z,101535.66
2023-04-27T08:13:09.757Z,101535.53
2023-04-27T08:15:37.467Z,101532.41
2023-04-27T08:18:06.044Z,101530.38
2023-04-27T08:20:33.649Z,101526.25
2023-04-27T08:23:01.958Z,101530.59
2023-04-27T08:25:30.912Z,101529.16
2023-04-27T08:28:01.131Z,101528.31
2023-04-27T08:30:29.616Z,101529.25
2023-04-27T08:32:57.509Z,101532.16
2023-04-27T08:35:25.261Z,101536.28
2023-04-27T08:37:54.148Z,101533.34
2023-04-27T08:40:25.341Z,101539.78
2023-04-27T08:42:59.348Z,101539.16
2023-04-27T08:45:28.954Z,101532.72
2023-04-27T08:47:56.983Z,101537.69
2023-04-27T08:50:26.416Z,101528.84
2023-04-27T08:52:53.999Z,101519.16
2023-04-27T08:55:21.735Z,101516.63
2023-04-27T08:58:01.342Z,101520.34
2023-04-27T09:00:41.488Z,101521.06
2023-04-27T09:03:12.092Z,101517.53
2023-04-27T09:06:00.583Z,101510.63
2023-04-27T09:08:44.068Z,101512.97
2023-04-27T09:11:12.989Z,101515.41
2023-04-27T09:13:45.925Z,101513.81
2023-04-27T09:16:15.014Z,101519.63
2023-04-27T09:18:44.977Z,101518.72
2023-04-27T09:21:23.194Z,101513.47
2023-04-27T09:23:52.083Z,101516.94
2023-04-27T09:26:22.574Z,101508.41
2023-04-27T09:28:53.509Z,101505.91
2023-04-27T09:31:22.649Z,101513.56
2023-04-27T09:33:56.506Z,101510.66
2023-04-27T09:36:25.685Z,101511.94
2023-04-27T09:38:54.320Z,101502.19
2023-04-27T09:41:22.860Z,101505.03
2023-04-27T09:43:57.800Z,101492.19
2023-04-27T09:46:29.100Z,101491.53
2023-04-27T09:48:58.083Z,101481.97
2023-04-27T09:51:26.056Z,101482.22
2023-04-27T09:53:58.147Z,101489.66
2023-04-27T09:56:39.458Z,101480.09
2023-04-27T09:59:25.244Z,101481.88
2023-04-27T10:01:57.825Z,101467.75
2023-04-27T10:04:47.140Z,101481.63
2023-04-27T10:07:16.409Z,101467.09
2023-04-27T10:09:46.273Z,101474.56
2023-04-27T10:12:19.985Z,101477.56
2023-04-27T10:14:54.060Z,101476.31
2023-04-27T10:17:26.450Z,101479.06
2023-04-27T10:19:57.826Z,101475.09
2023-04-27T10:22:38.039Z,101466.94
2023-04-27T10:25:17.451Z,101468.16
2023-04-27T10:27:51.974Z,101467.31
2023-04-27T10:30:22.778Z,101465.31
2023-04-27T10:32:55.044Z,101470.28
2023-04-27T10:35:24.088Z,101468.03
2023-04-27T10:37:53.001Z,101475.31
2023-04-27T10:40:21.495Z,101475.03
2023-04-27T10:42:49.812Z,101466.53
2023-04-27T10:45:31.918Z,101458.84
2023-04-27T10:48:02.344Z,101451.81
2023-04-27T10:50:31.908Z,101447.16
2023-04-27T10:53:02.673Z,101443.13
2023-04-27T10:55:32.020Z,101444.16
2023-04-27T10:58:01.384Z,101431.13
2023-04-27T11:00:34.985Z,101430.97
2023-04-27T11:03:13.223Z,101422.00
2023-04-27T11:05:42.735Z,101423.84
2023-04-27T11:08:14.048Z,101423.00
2023-04-27T11:10:47.237Z,101422.56
2023-04-27T11:13:17.970Z,101417.22
2023-04-27T11:15:48.730Z,101425.22
2023-04-27T11:18:18.006Z,101416.19
2023-04-27T11:20:47.857Z,101416.00
2023-04-27T11:23:26.976Z,101412.44
2023-04-27T11:25:55.018Z,101411.88
2023-04-27T11:28:25.977Z,101420.94
2023-04-27T11:30:59.066Z,101414.47
2023-04-27T11:33:26.909Z,101420.53
2023-04-27T11:35:55.104Z,101422.47
2023-04-27T11:38:23.659Z,101422.47
2023-04-27T11:41:01.228Z,101425.97
2023-04-27T11:43:30.074Z,101415.19
2023-04-27T11:46:03.375Z,101412.53
2023-04-27T11:48:31.389Z,101416.47
2023-04-27T11:51:01.455Z,101425.59
2023-04-27T11:53:33.781Z,101424.16
2023-04-27T11:56:05.032Z,101419.69
2023-04-27T11:58:35.975Z,101418.56
2023-04-27T12:01:05.344Z,101409.00
2023-04-27T12:03:35.597Z,101414.91
2023-04-27T12:06:21.298Z,101406.09
2023-04-27T12:08:51.493Z,101411.50
2023-04-27T12:11:19.198Z,101406.56
2023-04-27T12:13:48.177Z,101413.25
2023-04-27T12:16:17.192Z,101413.78
2023-04-27T12:18:44.934Z,101407.16
2023-04-27T12:21:13.156Z,101399.28
2023-04-27T12:23:40.888Z,101394.78
2023-04-27T12:26:08.509Z,101399.81
2023-04-27T12:28:37.985Z,101392.41
2023-04-27T12:31:08.150Z,101387.91
2023-04-27T12:33:37.861Z,101391.41
2023-04-27T12:36:05.757Z,101390.72
2023-04-27T12:38:33.599Z,101391.56
2023-04-27T12:41:03.201Z,101390.13
2023-04-27T12:43:31.056Z,101406.13
2023-04-27T12:45:59.221Z,101395.22
2023-04-27T12:48:27.168Z,101393.84
2023-04-27T12:50:56.129Z,101394.09
2023-04-27T12:53:23.994Z,101389.72
2023-04-27T12:55:53.412Z,101389.13
2023-04-27T12:58:21.915Z,101382.97
2023-04-27T13:00:49.482Z,101389.28
2023-04-27T13:03:17.341Z,101385.31
2023-04-27T13:05:45.603Z,101383.59
2023-04-27T13:08:14.829Z,101391.03
2023-04-27T13:10:42.654Z,101384.56
2023-04-27T13:13:10.296Z,101381.75
2023-04-27T13:15:38.590Z,101378.88
2023-04-27T13:18:10.276Z,101375.56
2023-04-27T13:20:38.377Z,101367.03
2023-04-27T13:23:06.623Z,101372.53
2023-04-27T13:25:35.931Z,101380.97
2023-04-27T13:28:04.058Z,101376.72
2023-04-27T13:30:36.029Z,101369.72
2023-04-27T13:33:18.515Z,101365.94
2023-04-27T13:35:51.497Z,101368.31
2023-04-27T13:38:19.068Z,101364.00
2023-04-27T13:40:49.759Z,101352.22
2023-04-27T13:43:17.408Z,101353.91
2023-04-27T13:45:45.296Z,101349.00
2023-04-27T13:48:13.709Z,101351.25
2023-04-27T13:50:41.570Z,101345.75
2023-04-27T13:53:09.389Z,101339.81
2023-04-27T13:55:37.295Z,101336.03
2023-04-27T13:58:06.264Z,101336.41
2023-04-27T14:00:34.636Z,101326.22
2023-04-27T14:03:04.354Z,101335.34
2023-04-27T14:05:33.053Z,101329.03
2023-04-27T14:08:01.632Z,101331.56
2023-04-27T14:10:29.483Z,101331.41
2023-04-27T14:12:58.271Z,101327.19
2023-04-27T14:15:28.066Z,101326.88
2023-04-27T14:17:56.109Z,101324.16
2023-04-27T14:20:24.536Z,101317.63
2023-04-27T14:22:56.664Z,101318.44
2023-04-27T14:25:27.149Z,101315.03
2023-04-27T14:27:54.787Z,101309.34
2023-04-27T14:30:22.802Z,101308.72
2023-04-27T14:32:51.809Z,101307.31
2023-04-27T14:35:20.974Z,101309.69
2023-04-27T14:37:48.713Z,101304.09
2023-04-27T14:40:16.417Z,101301.91
2023-04-27T14:42:44.329Z,101295.69
2023-04-27T14:45:12.587Z,101285.34
2023-04-27T14:47:41.049Z,101299.09
2023-04-27T14:50:11.509Z,101297.09
2023-04-27T14:52:39.425Z,101301.25
2023-04-27T14:55:09.009Z,101300.00
2023-04-27T14:57:37.582Z,101292.91
2023-04-27T15:00:10.040Z,101282.78
2023-04-27T15:02:39.524Z,101291.44
2023-04-27T15:05:07.953Z,101290.16
2023-04-27T15:07:37.077Z,101293.22
2023-04-27T15:10:05.097Z,101299.84
2023-04-27T15:12:32.831Z,101294.66
2023-04-27T15:15:00.677Z,101289.16
2023-04-27T15:17:29.500Z,101286.91
2023-04-27T15:19:58.983Z,101274.75
2023-04-27T15:22:27.698Z,101282.34
2023-04-27T15:24:57.091Z,101274.31
2023-04-27T15:27:26.254Z,101274.31
2023-04-27T15:29:55.219Z,101272.59
2023-04-27T15:32:23.227Z,101269.16
2023-04-27T15:34:51.752Z,101268.03
2023-04-27T15:37:19.799Z,101261.06
2023-04-27T15:39:48.020Z,101267.84
2023-04-27T15:42:17.923Z,101258.69
2023-04-27T15:44:46.420Z,101263.66
2023-04-27T15:47:15.256Z,101261.69
2023-04-27T15:49:54.041Z,101260.72
2023-04-27T15:52:25.590Z,101262.56
2023-04-27T15:54:54.164Z,101258.22
2023-04-27T15:57:24.119Z,101262.56
2023-04-27T15:59:51.682Z,101258.22
2023-04-27T16:02:20.105Z,101262.31
2023-04-27T16:04:49.113Z,101252.19
2023-04-27T16:07:16.899Z,101255.28
2023-04-27T16:09:44.477Z,101251.19
2023-04-27T16:12:13.096Z,101243.34
2023-04-27T16:14:42.973Z,101239.41
2023-04-27T16:17:11.559Z,101234.63
2023-04-27T16:19:39.148Z,101231.41
2023-04-27T16:22:08.443Z,101223.53
2023-04-27T16:24:38.034Z,101226.75
2023-04-27T16:27:07.051Z,101223.94
2023-04-27T16:29:35.180Z,101223.09
2023-04-27T16:32:04.408Z,101215.69
2023-04-27T16:34:32.374Z,101212.56
2023-04-27T16:37:00.019Z,101209.19
2023-04-27T16:39:29.101Z,101215.53
2023-04-27T16:41:56.687Z,101210.72
2023-04-27T16:44:24.344Z,101218.75
2023-04-27T16:46:52.569Z,101210.56
2023-04-27T16:49:21.606Z,101213.38
2023-04-27T16:51:49.205Z,101206.22
2023-04-27T16:54:16.890Z,101198.06
2023-04-27T16:56:45.689Z,101196.22
2023-04-27T16:59:15.244Z,101192.84
2023-04-27T17:01:43.313Z,101188.91
2023-04-27T17:04:12.006Z,101185.81
2023-04-27T17:06:41.988Z,101184.31
2023-04-27T17:09:10.769Z,101186.41
2023-04-27T17:11:38.373Z,101189.63
2023-04-27T17:14:05.920Z,101187.53
2023-04-27T17:16:33.548Z,101191.19
2023-04-27T17:19:01.426Z,101193.28
2023-04-27T17:21:29.038Z,101190.91
2023-04-27T17:23:57.933Z,101197.34
2023-04-27T17:26:25.975Z,101189.63
2023-04-27T17:28:59.680Z,101193.69
2023-04-27T17:31:27.364Z,101186.78
2023-04-27T17:33:55.012Z,101184.41
2023-04-27T17:36:22.612Z,101190.84
2023-04-27T17:38:50.292Z,101182.44
2023-04-27T17:41:19.253Z,101178.63
2023-04-27T17:43:47.667Z,101180.75
2023-04-27T17:46:16.052Z,101179.47
2023-04-27T17:48:44.214Z,101186.88
2023-04-27T17:51:13.448Z,101181.69
2023-04-27T17:53:41.091Z,101176.75
2023-04-27T17:56:09.028Z,101173.53
2023-04-27T17:58:38.590Z,101167.75
2023-04-27T18:01:08.949Z,101161.84
2023-04-27T18:03:37.292Z,101161.25
2023-04-27T18:06:05.011Z,101154.69
2023-04-27T18:08:32.753Z,101163.09
2023-04-27T18:11:00.426Z,101158.97
2023-04-27T18:13:28.540Z,101147.88
2023-04-27T18:15:58.493Z,101151.09
2023-04-27T18:18:26.805Z,101151.47
2023-04-27T18:20:54.553Z,101145.59
2023-04-27T18:23:23.904Z,101143.69
2023-04-27T18:25:51.491Z,101145.06
2023-04-27T18:28:19.244Z,101143.78
2023-04-27T18:30:46.862Z,101148.78
2023-04-27T18:33:17.690Z,101146.50
2023-04-27T18:35:46.038Z,101148.75
2023-04-27T18:38:14.121Z,101143.97
2023-04-27T18:40:42.026Z,101152.34
2023-04-27T18:43:11.194Z,101158.88
2023-04-27T18:45:39.030Z,101156.59
2023-04-27T18:48:06.775Z,101157.13
2023-04-27T18:50:36.025Z,101155.84
2023-04-27T18:53:05.281Z,101151.03
2023-04-27T18:55:32.860Z,101154.94
2023-04-27T18:58:00.826Z,101156.28
2023-04-27T19:00:30.683Z,101159.34
2023-04-27T19:02:58.533Z,101171.06
2023-04-27T19:05:27.158Z,101161.66
2023-04-27T19:07:56.178Z,101159.53
2023-04-27T19:10:24.597Z,101163.25
2023-04-27T19:12:52.940Z,101158.34
2023-04-27T19:15:21.260Z,101163.19
2023-04-27T19:17:52.770Z,101161.88
2023-04-27T19:20:29.822Z,101165.75
2023-04-27T19:22:58.731Z,101161.66
2023-04-27T19:25:26.671Z,101160.09
2023-04-27T19:27:54.579Z,101154.44
2023-04-27T19:30:24.109Z,101147.66
2023-04-27T19:32:52.104Z,101152.41
2023-04-27T19:35:20.346Z,101142.28
2023-04-27T19:37:48.117Z,101144.47
2023-04-27T19:40:17.989Z,101141.81
2023-04-27T19:42:46.115Z,101145.03
2023-04-27T19:45:13.938Z,101145.28
2023-04-27T19:47:41.951Z,101143.69
2023-04-27T19:50:11.013Z,101141.44
2023-04-27T19:52:40.642Z,101136.22
2023-04-27T19:55:09.031Z,101135.78
2023-04-27T19:57:38.010Z,101139.50
2023-04-27T20:00:10.019Z,101133.59
2023-04-27T20:02:41.960Z,101122.22
2023-04-27T20:05:10.502Z,101124.19
2023-04-27T20:07:38.517Z,101124.41
2023-04-27T20:10:07.457Z,101129.84
2023-04-27T20:15:09.257Z,101120.44
2023-04-27T20:17:37.622Z,101117.19
2023-04-27T20:20:09.969Z,101119.00
2023-04-27T20:22:37.793Z,101116.56
2023-04-27T20:25:07.714Z,101107.63
2023-04-27T20:27:36.045Z,101102.56
2023-04-27T20:30:04.608Z,101102.94
2023-04-27T20:32:33.580Z,101104.97
2023-04-27T20:35:02.450Z,101106.78
2023-04-27T20:37:32.077Z,101095.69
2023-04-27T20:40:00.796Z,101099.66
2023-04-27T20:42:29.468Z,101103.53
2023-04-27T20:44:57.529Z,101099.06
2023-04-27T20:47:27.038Z,101099.44
2023-04-27T20:49:56.794Z,101097.88
2023-04-27T20:52:24.408Z,101095.31
2023-04-27T20:54:52.003Z,101095.31
2023-04-27T20:57:19.548Z,101093.63
2023-04-27T20:59:48.528Z,101096.41
2023-04-27T21:02:17.573Z,101086.78
2023-04-27T21:04:45.800Z,101087.59
2023-04-27T21:07:14.758Z,101084.25
2023-04-27T21:09:42.433Z,101083.50
2023-04-27T21:12:10.146Z,101084.47
2023-04-27T21:14:37.834Z,101075.03
2023-04-27T21:17:05.740Z,101080.59
2023-04-27T21:19:34.464Z,101078.91
2023-04-27T21:22:02.268Z,101082.53
2023-04-27T21:24:31.236Z,101073.13
2023-04-27T21:26:58.883Z,101077.59
2023-04-27T21:29:27.762Z,101073.25
2023-04-27T21:31:56.054Z,101072.63
2023-04-27T21:34:23.668Z,101067.31
2023-04-27T21:36:51.242Z,101061.88
2023-04-27T21:39:18.943Z,101056.56
2023-04-27T21:41:52.266Z,101048.03
2023-04-27T21:44:19.928Z,101044.50
2023-04-27T21:46:50.070Z,101029.66
2023-04-27T21:49:17.986Z,101029.53
2023-04-27T21:51:45.761Z,101027.13
2023-04-27T21:54:13.997Z,101016.41
2023-04-27T21:56:42.542Z,101013.03
2023-04-27T21:59:11.492Z,101016.03
2023-04-27T22:01:39.167Z,101009.63
2023-04-27T22:04:24.425Z,101000.94
2023-04-27T22:07:01.425Z,101003.72
2023-04-27T22:09:29.159Z,100998.44
2023-04-27T22:11:57.630Z,100986.84
2023-04-27T22:14:26.551Z,100980.91
2023-04-27T22:16:54.121Z,100979.97
2023-04-27T22:19:21.924Z,100980.91
2023-04-27T22:21:49.410Z,100972.25
2023-04-27T22:24:17.338Z,100973.22
2023-04-27T22:26:45.099Z,100974.28
2023-04-27T22:29:12.962Z,100970.69
2023-04-27T22:31:42.424Z,100959.69
2023-04-27T22:34:11.037Z,100949.56
2023-04-27T22:36:38.905Z,100955.00
2023-04-27T22:39:07.085Z,100947.50
2023-04-27T22:41:35.025Z,100941.09
2023-04-27T22:44:02.600Z,100939.41
2023-04-27T22:46:30.445Z,100940.38
2023-04-27T22:49:01.331Z,100941.97
2023-04-27T22:51:28.897Z,100931.22
2023-04-27T22:53:56.457Z,100927.75
2023-04-27T22:56:24.024Z,100925.19
2023-04-27T22:58:51.989Z,100932.06
2023-04-27T23:01:19.649Z,100925.19
2023-04-27T23:03:47.476Z,100922.91
2023-04-27T23:06:17.778Z,100923.75
2023-04-27T23:08:46.918Z,100911.19
2023-04-27T23:11:15.365Z,100913.84
2023-04-27T23:13:44.669Z,100913.16
2023-04-27T23:16:16.088Z,100914.00
2023-04-27T23:18:43.747Z,100915.66
2023-04-27T23:21:11.719Z,100908.81
2023-04-27T23:23:40.797Z,100908.69
2023-04-27T23:26:14.080Z,100905.91
2023-04-27T23:28:42.326Z,100904.22
2023-04-27T23:31:10.687Z,100896.38
2023-04-27T23:33:39.386Z,100896.47
2023-04-27T23:36:08.336Z,100899.88
2023-04-27T23:38:36.108Z,100900.72
2023-04-27T23:41:05.610Z,100890.94
2023-04-27T23:43:34.778Z,100881.41
2023-04-27T23:46:03.070Z,100885.88
2023-04-27T23:48:30.700Z,100874.41
2023-04-27T23:51:01.920Z,100871.88
2023-04-27T23:53:29.991Z,100876.97
2023-04-27T23:55:58.537Z,100869.84
2023-04-27T23:58:29.247Z,100862.00
